Latest Weather Observations for Tindal

IDD60801

Issued at 11:05 am CST Wednesday 22 October 2014 (issued every 30 minutes, with the page automatically refreshed every 10 minutes)

About weather observations | Map of weather stations | Latest weather observations for NT | Other Formats
Station Details ID: 014932 Name: TINDAL RAAF Lat: -14.52 Lon: 132.38 Height: 133.6 m
Data from the previous 72 hours. | See also: Recent months at Tindal
Date/Time
CST
Temp
°C
App
Temp
°C
Dew
Point
Rel
Hum
%
Delta-T
°C
Wind Press
QNH
hPa
Press
MSL
hPa
Rain
since 9 am
mm
Dir
 
Spd
km/h
Gust
km/h
Spd
kts
Gust
kts
22/11:00am 33.2 32.7 14.8 33 11.4 ENE 11 24 6 13 1015.4 - 0.0
22/10:30am 32.0 31.6 15.1 36 10.5 ENE 11 24 6 13 1016.0 - 0.0
22/10:00am 30.7 32.5 17.4 45 8.5 N 4 11 2 6 1016.4 - 0.0
22/09:30am 30.1 32.3 19.5 53 7.0 NW 7 15 4 8 1016.7 - 0.0
22/09:00am 28.7 30.1 19.6 58 6.0 N 11 15 6 8 1016.9 1015.8 0.0
22/08:30am 27.9 29.4 19.7 61 5.4 N 11 17 6 9 1016.7 - 0.0
22/08:00am 27.3 30.7 19.4 62 5.1 CALM 0 11 0 6 1016.6 - 0.0
22/07:30am 26.4 28.8 18.0 60 5.3 SE 2 7 1 4 1016.3 - 0.0
22/07:00am 24.1 25.7 17.8 68 4.0 ESE 6 9 3 5 1016.0 - 0.0
22/06:30am 22.3 23.0 17.0 72 3.3 SE 9 11 5 6 1015.6 - 0.0
22/06:00am 22.5 23.6 17.2 72 3.3 SSE 7 11 4 6 1015.2 1014.2 0.0
22/05:30am 22.5 23.3 17.2 72 3.3 SE 9 11 5 6 1014.7 - 0.0
22/05:00am 23.5 25.9 17.0 67 4.0 CALM 0 0 0 0 1013.6 - 0.0
22/04:30am 23.9 26.5 17.4 67 4.1 CALM 0 0 0 0 1013.4 - 0.0
22/04:00am 24.6 26.0 17.3 64 4.6 N 6 7 3 4 1013.2 - 0.0
22/03:30am 26.1 27.5 17.7 60 5.3 N 7 9 4 5 1012.9 - 0.0
22/03:00am 26.7 27.3 17.7 57 5.7 N 11 15 6 8 1013.0 1012.0 0.0
22/02:30am 26.9 27.2 17.1 55 6.2 NNW 11 19 6 10 1013.2 - 0.0
22/02:00am 28.0 26.2 12.0 37 9.3 NNW 13 20 7 11 1013.3 - 0.0
22/01:30am 27.5 25.7 9.3 32 10.1 NNE 9 13 5 7 1013.1 - 0.0
22/01:00am 27.8 25.1 9.1 31 10.4 NNE 13 15 7 8 1013.4 - 0.0
22/12:30am 27.8 25.3 8.1 29 10.7 NE 11 15 6 8 1013.8 - 0.0
22/12:00am 27.9 24.9 7.7 28 10.9 ENE 13 15 7 8 1014.0 1013.0 0.0
 
Date/Time
CST
Temp
°C
App
Temp
°C
Dew
Point
Rel
Hum
%
Delta-T
°C
Wind Press
QNH
hPa
Press
MSL
hPa
Rain
since 9 am
mm
Dir
 
Spd
km/h
Gust
km/h
Spd
kts
Gust
kts
21/11:30pm 24.9 21.7 8.4 35 8.9 SE 15 17 8 9 1014.3 - 0.0
21/11:00pm 25.8 25.6 9.2 35 9.1 CALM 0 0 0 0 1014.0 - 0.0
21/10:30pm 26.3 24.6 8.3 32 9.8 E 7 7 4 4 1014.1 - 0.0
21/10:00pm 26.8 25.1 8.3 31 10.1 E 7 9 4 5 1013.8 - 0.0
21/09:30pm 27.8 26.2 8.1 29 10.7 E 6 7 3 4 1013.5 - 0.0
21/09:00pm 29.9 27.5 7.2 24 12.3 E 9 11 5 6 1013.4 1012.4 0.0
21/08:30pm 29.9 27.7 7.7 25 12.1 E 9 13 5 7 1013.1 - 0.0
21/08:00pm 30.2 28.0 8.0 25 12.2 E 9 11 5 6 1012.8 - 0.0
21/07:30pm 31.5 29.9 7.9 23 13.1 SE 6 9 3 5 1012.6 - 0.0
21/07:00pm 32.8 30.4 6.9 20 14.2 E 9 11 5 6 1012.3 - 0.0
21/06:30pm 34.2 31.3 6.5 18 15.2 SE 11 20 6 11 1012.0 - 0.0
21/06:00pm 35.4 32.4 7.5 18 15.6 SE 13 19 7 10 1011.8 1010.7 0.0
21/05:30pm 36.1 32.8 8.0 18 15.9 SE 15 22 8 12 1011.6 - 0.0
21/05:00pm 35.9 32.6 7.9 18 15.8 SE 15 26 8 14 1011.4 - 0.0
21/04:30pm 37.3 34.0 8.2 17 16.6 SSE 15 35 8 19 1011.3 - 0.0
21/04:00pm 36.7 32.0 7.7 17 16.4 S 22 32 12 17 1011.1 - 0.0
21/03:30pm 37.2 32.9 7.2 16 16.9 ESE 19 39 10 21 1011.3 - 0.0
21/03:00pm 37.3 33.8 7.3 16 16.9 SSE 15 24 8 13 1011.6 1010.5 0.0
21/02:30pm 37.4 33.3 6.4 15 17.3 ESE 17 39 9 21 1012.1 - 0.0
21/02:00pm 36.8 31.5 6.9 16 16.7 E 24 46 13 25 1012.5 - 0.0
21/01:30pm 36.0 31.5 7.1 17 16.1 E 20 32 11 17 1013.3 - 0.0
21/01:00pm 36.3 33.4 8.2 18 16.0 ESE 13 26 7 14 1013.9 - 0.0
21/12:30pm 36.1 32.6 8.8 19 15.7 ESE 17 24 9 13 1014.6 - 0.0
21/12:00pm 35.1 31.6 8.8 20 15.0 ENE 17 22 9 12 1015.2 1014.2 0.0
21/11:30am 34.9 30.4 8.6 20 15.0 E 22 32 12 17 1015.7 - 0.0
21/11:00am 34.4 31.6 11.5 25 13.6 ENE 17 30 9 16 1016.3 - 0.0
21/10:30am 33.0 31.7 12.6 29 12.2 E 11 20 6 11 1016.7 - 0.0
21/10:00am 31.7 31.5 13.5 33 11.0 NE 7 19 4 10 1017.2 - 0.0
21/09:30am 30.5 30.6 15.4 40 9.4 WNW 9 15 5 8 1017.2 - 0.0
21/09:00am 29.4 30.4 16.9 47 7.9 NNW 7 13 4 7 1017.3 1016.2 0.0
21/08:30am 29.0 29.6 15.9 45 8.1 W 7 11 4 6 1017.1 - 0.0
21/08:00am 27.8 27.7 12.2 38 9.1 SSE 4 7 2 4 1017.0 - 0.0
21/07:30am 25.5 25.2 11.3 41 8.1 S 4 9 2 5 1016.8 - 0.0
21/07:00am 23.9 23.4 10.9 44 7.3 S 4 6 2 3 1016.6 - 0.0
21/06:30am 22.7 21.6 10.8 47 6.6 ESE 7 9 4 5 1016.2 - 0.0
21/06:00am 22.6 21.1 10.4 46 6.7 SE 9 11 5 6 1015.8 1014.8 0.0
21/05:30am 22.6 21.2 11.0 48 6.5 SE 9 9 5 5 1015.6 - 0.0
21/05:00am 22.9 21.2 11.3 48 6.5 SSE 11 13 6 7 1015.2 - 0.0
21/04:30am 22.4 21.3 11.8 51 6.0 SE 9 13 5 7 1014.5 - 0.0
21/04:00am 23.6 23.7 10.3 43 7.4 CALM 0 0 0 0 1013.9 - 0.0
21/03:30am 25.4 25.0 12.3 44 7.6 NNW 6 7 3 4 1013.5 - 0.0
21/03:00am 26.6 25.1 10.7 37 9.0 N 9 11 5 6 1013.4 1012.4 0.0
21/02:30am 26.9 25.7 10.2 35 9.4 N 7 11 4 6 1013.6 - 0.0
21/02:00am 27.0 25.3 9.8 34 9.6 NNW 9 13 5 7 1013.8 - 0.0
21/01:30am 28.1 26.0 8.4 29 10.8 N 9 13 5 7 1013.8 - 0.0
21/01:00am 28.8 26.1 9.0 29 11.0 NE 13 19 7 10 1013.6 - 0.0
21/12:30am 29.0 26.1 9.7 30 10.9 NE 15 20 8 11 1013.8 - 0.0
21/12:00am 29.6 25.3 9.2 28 11.4 NE 22 28 12 15 1013.7 1012.7 0.0
 
Date/Time
CST
Temp
°C
App
Temp
°C
Dew
Point
Rel
Hum
%
Delta-T
°C
Wind Press
QNH
hPa
Press
MSL
hPa
Rain
since 9 am
mm
Dir
 
Spd
km/h
Gust
km/h
Spd
kts
Gust
kts
20/11:30pm 30.0 25.9 7.8 25 12.2 ENE 19 26 10 14 1014.0 - 0.0
20/11:00pm 30.2 26.5 8.0 25 12.2 ENE 17 22 9 12 1014.0 - 0.0
20/10:30pm 30.1 27.7 8.5 26 12.0 ENE 11 15 6 8 1014.0 - 0.0
20/10:00pm 30.3 27.5 8.7 26 12.0 E 13 17 7 9 1013.8 - 0.0
20/09:30pm 31.3 28.4 8.3 24 12.8 ENE 13 19 7 10 1013.3 - 0.0
20/09:00pm 30.7 28.6 8.4 25 12.4 ENE 9 15 5 8 1012.9 1011.9 0.0
20/08:30pm 30.9 29.0 7.4 23 12.9 E 7 13 4 7 1012.6 - 0.0
20/08:00pm 31.6 29.0 5.9 20 13.8 E 9 13 5 7 1012.1 - 0.0
20/07:30pm 31.9 28.8 5.4 19 14.1 ESE 11 17 6 9 1011.7 - 0.0
20/07:00pm 33.5 30.5 4.2 16 15.4 ESE 9 13 5 7 1011.1 - 0.0
20/06:30pm 34.9 31.2 4.4 15 16.2 E 13 19 7 10 1010.7 - 0.0
20/06:00pm 36.1 31.4 3.3 13 17.3 E 17 22 9 12 1010.4 1009.3 0.0
20/05:30pm 36.6 31.4 3.7 13 17.5 SE 20 30 11 16 1010.0 - 0.0
20/05:00pm 37.4 32.1 2.0 11 18.4 E 19 30 10 16 1009.9 - 0.0
20/04:30pm 37.6 32.3 2.1 11 18.5 E 19 33 10 18 1009.9 - 0.0
20/04:00pm 38.0 32.2 2.4 11 18.7 E 22 32 12 17 1010.0 - 0.0
20/03:30pm 37.8 32.6 3.5 12 18.3 ESE 20 39 11 21 1010.2 - 0.0
20/03:00pm 38.2 33.0 3.8 12 18.5 ESE 20 35 11 19 1010.6 1009.5 0.0
20/02:30pm 37.4 32.6 4.4 13 17.8 SE 19 39 10 21 1010.9 - 0.0
20/02:00pm 37.2 32.3 4.2 13 17.7 SE 19 35 10 19 1011.5 - 0.0
20/01:30pm 37.2 32.3 5.3 14 17.4 E 20 32 11 17 1011.9 - 0.0
20/01:00pm 36.2 31.2 4.5 14 17.0 ESE 20 37 11 20 1012.7 - 0.0
20/12:30pm 36.1 30.9 5.4 15 16.7 ESE 22 39 12 21 1013.5 - 0.0
20/12:00pm 36.1 30.9 5.4 15 16.7 E 22 32 12 17 1014.1 1013.1 0.0
20/11:30am 35.3 30.7 5.7 16 16.1 E 19 37 10 20 1014.7 - 0.0
20/11:00am 35.1 30.3 4.6 15 16.3 ESE 19 30 10 16 1015.1 - 0.0
20/10:30am 34.4 30.4 5.0 16 15.8 E 15 28 8 15 1015.6 - 0.0
20/10:00am 33.4 29.0 7.4 20 14.4 E 20 33 11 18 1016.3 - 0.0
20/09:30am 32.2 28.7 10.3 26 12.6 E 19 30 10 16 1016.6 - 0.0
20/09:00am 30.3 28.9 12.2 33 10.7 E 11 22 6 12 1016.6 1015.5 0.0
20/08:30am 28.9 28.3 14.7 42 8.7 NE 11 15 6 8 1016.7 - 0.0
20/08:00am 27.9 28.2 15.9 48 7.4 E 9 13 5 7 1016.6 - 0.0
20/07:30am 27.1 27.7 16.7 53 6.5 E 9 15 5 8 1016.0 - 0.0
20/07:00am 25.6 26.4 16.4 56 5.7 E 7 9 4 5 1015.6 - 0.0
20/06:30am 24.2 23.8 15.1 56 5.5 E 11 15 6 8 1015.4 - 0.0
20/06:00am 22.4 21.8 14.5 61 4.7 E 11 17 6 9 1015.1 1014.1 0.0
20/05:30am 21.5 20.7 9.7 47 6.4 SW 4 7 2 4 1014.7 - 0.0
20/05:00am 21.9 21.5 9.8 46 6.6 SSW 2 6 1 3 1014.4 - 0.0
20/04:30am 22.0 21.3 9.9 46 6.6 E 4 7 2 4 1014.1 - 0.0
20/04:00am 23.3 22.0 9.3 41 7.6 E 6 6 3 3 1013.7 - 0.0
20/03:30am 24.7 24.4 8.6 36 8.7 CALM 0 0 0 0 1013.7 - 0.0
20/03:00am 25.6 24.1 8.6 34 9.2 NNE 6 9 3 5 1013.8 1012.8 0.0
20/02:30am 25.8 25.4 8.3 33 9.5 CALM 0 4 0 2 1013.6 - 0.0
20/02:00am 26.9 26.2 8.4 31 10.1 NE 2 6 1 3 1013.6 - 0.0
20/01:30am 28.0 25.9 8.3 29 10.8 NE 9 15 5 8 1013.4 - 0.0
20/01:00am 28.7 26.5 7.9 27 11.3 ENE 9 15 5 8 1013.7 - 0.0
20/12:30am 29.2 25.8 7.7 26 11.7 ENE 15 19 8 10 1013.9 - 0.0
20/12:00am 30.0 25.7 7.2 24 12.4 ENE 19 30 10 16 1014.1 1013.1 0.0
 
Date/Time
CST
Temp
°C
App
Temp
°C
Dew
Point
Rel
Hum
%
Delta-T
°C
Wind Press
QNH
hPa
Press
MSL
hPa
Rain
since 9 am
mm
Dir
 
Spd
km/h
Gust
km/h
Spd
kts
Gust
kts
19/11:30pm 30.4 25.8 8.2 25 12.3 ENE 22 30 12 16 1013.9 - 0.0
19/11:00pm 30.9 26.4 8.6 25 12.4 E 22 32 12 17 1013.9 - 0.0
19/10:30pm 31.2 27.5 9.4 26 12.3 E 19 26 10 14 1013.8 - 0.0
19/10:00pm 31.1 28.7 9.9 27 12.1 E 13 20 7 11 1013.5 - 0.0
19/09:30pm 31.7 29.2 9.8 26 12.5 E 13 20 7 11 1013.0 - 0.0
19/09:00pm 32.2 29.3 9.7 25 12.9 E 15 19 8 10 1012.7 1011.6 0.0
19/08:30pm 32.3 29.7 9.2 24 13.1 E 13 19 7 10 1012.4 - 0.0
19/08:00pm 32.8 30.3 9.6 24 13.3 E 13 17 7 9 1012.0 - 0.0
19/07:30pm 33.7 30.1 9.7 23 13.8 E 19 26 10 14 1011.5 - 0.0
19/07:00pm 34.5 30.9 10.4 23 14.1 E 20 32 11 17 1011.0 - 0.0
19/06:30pm 35.2 31.2 4.7 15 16.3 ESE 15 20 8 11 1010.6 - 0.0
19/06:00pm 36.4 32.2 3.6 13 17.4 E 15 26 8 14 1010.4 1009.3 0.0
19/05:30pm 36.9 31.6 2.8 12 17.9 ESE 20 26 11 14 1010.1 - 0.0
19/05:00pm 37.5 32.6 2.1 11 18.4 E 17 26 9 14 1009.9 - 0.0
19/04:30pm 37.6 33.3 0.8 10 18.8 ESE 13 20 7 11 1010.0 - 0.0
19/04:00pm 38.2 33.0 2.6 11 18.8 ESE 19 30 10 16 1010.0 - 0.0
19/03:30pm 38.0 34.3 2.4 11 18.7 SSE 11 19 6 10 1010.0 - 0.0
19/03:00pm 38.5 32.4 2.8 11 18.9 SSE 24 37 13 20 1010.1 1009.0 0.0
19/02:30pm 38.1 32.0 2.5 11 18.7 E 24 43 13 23 1010.5 - 0.0
19/02:00pm 38.0 33.0 3.7 12 18.4 E 19 35 10 19 1010.9 - 0.0
19/01:30pm 37.6 33.9 4.5 13 17.9 ESE 13 30 7 16 1011.5 - 0.0
19/01:00pm 37.1 32.2 4.1 13 17.7 ESE 19 33 10 18 1012.2 - 0.0
19/12:30pm 37.1 31.8 5.2 14 17.4 SE 22 32 12 17 1012.7 - 0.0
19/12:00pm 36.6 31.8 5.8 15 16.9 E 20 32 11 17 1013.4 1012.4 0.0
19/11:30am 36.0 32.3 8.0 18 15.9 E 17 39 9 21 1013.9 - 0.0

Other Formats:

Comma delimited format used in spreadsheet applications
http://www.bom.gov.au/fwo/IDD60801/IDD60801.94131.axf

JavaScript Object Notation format (JSON) in row-major order
http://www.bom.gov.au/fwo/IDD60801/IDD60801.94131.json